Time;durP1;ratioP1;P1;durP2;ratioP2;P2;SDS_P1;SDS_P2;PMS_P1;PMS_P2;Temp;Humidity;BMP_temperature;BMP_pressure;BME280_temperature;BME280_humidity;BME280_pressure;Samples;Min_cycle;Max_cycle;Signal;HPM_P1;HPM_P2
2022/01/08 00:00:40;;;;;;;1.13;1.02;;;3.00;99.90;;;;;;5053378;28;20199;-78
2022/01/08 00:03:07;;;;;;;17.98;3.03;;;3.00;99.90;;;;;;5053745;28;20215;-78
2022/01/08 00:05:34;;;;;;;0.88;0.88;;;3.00;99.90;;;;;;5053454;28;20195;-78
2022/01/08 00:08:01;;;;;;;0.50;0.50;;;3.00;99.90;;;;;;5053198;28;20568;-78
2022/01/08 00:10:27;;;;;;;0.40;0.40;;;3.00;99.90;;;;;;5053339;28;20190;-78
2022/01/08 00:12:56;;;;;;;0.40;0.40;;;3.00;99.90;;;;;;5053229;28;20225;-78
2022/01/08 00:15:23;;;;;;;0.57;0.50;;;3.00;99.90;;;;;;5053108;28;20267;-78
2022/01/08 00:17:51;;;;;;;1.35;1.25;;;3.00;99.90;;;;;;5053640;28;20561;-78
2022/01/08 00:20:17;;;;;;;1.73;0.90;;;3.00;99.90;;;;;;5053349;28;20202;-77
2022/01/08 00:22:44;;;;;;;2.35;1.95;;;3.00;99.90;;;;;;5053113;28;20222;-78
2022/01/08 00:25:12;;;;;;;2.15;0.70;;;3.00;99.90;;;;;;5053299;28;20203;-78
2022/01/08 00:27:38;;;;;;;0.50;0.50;;;2.90;99.90;;;;;;5052759;28;20209;-78
2022/01/08 00:30:06;;;;;;;0.70;0.70;;;2.90;99.90;;;;;;5053082;28;20222;-76
2022/01/08 00:32:34;;;;;;;0.98;0.95;;;2.90;99.90;;;;;;5053106;28;20222;-78
2022/01/08 00:35:02;;;;;;;0.60;0.60;;;2.90;99.90;;;;;;5053175;28;20241;-78
2022/01/08 00:37:29;;;;;;;5.25;3.95;;;2.90;99.90;;;;;;5052749;28;20190;-78
2022/01/08 00:39:56;;;;;;;0.70;0.70;;;2.80;99.90;;;;;;5052466;28;20198;-77
2022/01/08 00:42:23;;;;;;;0.40;0.40;;;2.80;99.90;;;;;;5052576;28;20214;-78
2022/01/08 00:44:50;;;;;;;0.57;0.57;;;2.80;99.90;;;;;;5052940;28;20195;-78
2022/01/08 00:47:16;;;;;;;1.48;1.40;;;2.80;99.90;;;;;;5052001;28;20225;-78
2022/01/08 00:49:43;;;;;;;1.30;1.30;;;2.80;99.90;;;;;;5052316;28;20213;-78
2022/01/08 00:52:11;;;;;;;0.70;0.70;;;2.70;99.90;;;;;;5052500;28;20198;-78
2022/01/08 00:54:38;;;;;;;4.15;1.10;;;2.60;99.90;;;;;;5052400;28;20199;-78
2022/01/08 00:57:05;;;;;;;0.88;0.88;;;2.60;99.90;;;;;;5052321;28;20199;-78
2022/01/08 00:59:32;;;;;;;1.25;1.15;;;2.60;99.90;;;;;;5052372;28;20198;-78
2022/01/08 01:01:59;;;;;;;10.85;2.67;;;2.50;99.90;;;;;;5052298;28;20214;-77
2022/01/08 01:04:26;;;;;;;0.90;0.85;;;2.50;99.90;;;;;;5052409;28;20198;-78
2022/01/08 01:06:53;;;;;;;0.60;0.60;;;2.50;99.90;;;;;;5052209;28;20209;-78
2022/01/08 01:09:21;;;;;;;2.05;1.85;;;2.40;99.90;;;;;;5051234;28;20238;-78
2022/01/08 01:11:48;;;;;;;1.45;1.35;;;2.40;99.90;;;;;;5052329;28;20209;-78
2022/01/08 01:14:15;;;;;;;0.68;0.68;;;2.40;99.90;;;;;;5051711;28;20229;-78
2022/01/08 01:16:42;;;;;;;0.77;0.60;;;2.30;99.90;;;;;;5052129;28;20720;-78
2022/01/08 01:19:08;;;;;;;1.45;1.35;;;2.30;99.90;;;;;;5051846;28;20191;-78
2022/01/08 01:21:35;;;;;;;2.60;0.70;;;2.30;99.90;;;;;;5051703;28;20695;-79
2022/01/08 01:24:09;;;;;;;1.30;1.20;;;2.20;99.90;;;;;;5052204;28;20226;-78
2022/01/08 01:26:41;;;;;;;0.40;0.40;;;2.20;99.90;;;;;;5051731;28;20205;-78
2022/01/08 01:29:26;;;;;;;1.60;1.50;;;2.20;99.90;;;;;;5051349;28;20289;-78
2022/01/08 01:48:28;;;;;;;0.70;0.70;;;2.00;99.90;;;;;;5051169;28;20595;-78
2022/01/08 01:50:55;;;;;;;6.93;1.58;;;2.00;99.90;;;;;;5051134;28;20201;-77
2022/01/08 01:53:22;;;;;;;1.95;1.85;;;2.00;99.90;;;;;;5051582;28;20223;-78
2022/01/08 01:55:49;;;;;;;1.55;1.45;;;1.90;99.90;;;;;;5051539;28;20198;-77
2022/01/08 01:58:18;;;;;;;0.60;0.60;;;1.80;99.90;;;;;;5050950;28;20195;-78
2022/01/08 02:00:46;;;;;;;2.13;0.98;;;1.90;99.90;;;;;;5050926;28;20225;-78
2022/01/08 02:03:13;;;;;;;0.63;0.63;;;1.90;99.90;;;;;;5051189;28;20711;-77
2022/01/08 02:05:40;;;;;;;2.97;2.88;;;1.90;99.90;;;;;;5051464;28;20210;-77
2022/01/08 02:08:09;;;;;;;0.57;0.57;;;1.90;99.90;;;;;;5051557;28;20191;-78
2022/01/08 02:10:36;;;;;;;1.95;1.13;;;1.90;99.90;;;;;;5050581;28;20225;-78
2022/01/08 02:15:30;;;;;;;0.40;0.40;;;1.80;99.90;;;;;;5129315;22;20240;-78
2022/01/08 02:17:57;;;;;;;0.50;0.40;;;1.80;99.90;;;;;;5084714;28;20432;-80
2022/01/08 02:20:25;;;;;;;0.68;0.68;;;1.80;99.90;;;;;;5094771;28;20189;-81
2022/01/08 02:22:52;;;;;;;0.50;0.50;;;1.70;99.90;;;;;;5101278;28;20208;-80
2022/01/08 02:25:22;;;;;;;1.35;1.05;;;1.70;99.90;;;;;;5100839;28;20216;-80
2022/01/08 02:27:49;;;;;;;2.50;2.40;;;1.70;99.90;;;;;;5101258;28;20592;-81
2022/01/08 02:30:16;;;;;;;0.43;0.43;;;1.70;99.90;;;;;;5100180;28;20220;-80
2022/01/08 02:32:43;;;;;;;0.95;0.95;;;1.70;99.90;;;;;;5101026;28;20535;-80
2022/01/08 02:35:10;;;;;;;0.98;0.50;;;1.70;99.90;;;;;;5101252;28;20224;-80
2022/01/08 02:37:38;;;;;;;0.60;0.60;;;1.70;99.90;;;;;;5100479;28;20613;-81
2022/01/08 02:40:07;;;;;;;0.50;0.50;;;1.70;99.90;;;;;;5100522;28;20189;-81
2022/01/08 02:42:39;;;;;;;0.40;0.40;;;1.60;99.90;;;;;;5101378;28;20619;-81
2022/01/08 02:45:08;;;;;;;2.05;1.40;;;1.60;99.90;;;;;;5100756;28;20216;-81
2022/01/08 02:47:34;;;;;;;0.50;0.40;;;1.60;99.90;;;;;;5100632;28;20610;-80
2022/01/08 02:50:01;;;;;;;3.13;1.05;;;1.50;99.90;;;;;;5100436;28;20216;-80
2022/01/08 02:52:28;;;;;;;0.40;0.40;;;1.50;99.90;;;;;;5100912;28;20196;-80
2022/01/08 02:54:56;;;;;;;0.88;0.88;;;1.50;99.90;;;;;;5101212;28;20503;-81
2022/01/08 02:57:23;;;;;;;1.73;1.63;;;1.40;99.90;;;;;;5102233;28;20197;-80
2022/01/08 02:59:50;;;;;;;0.40;0.40;;;1.40;99.90;;;;;;5100135;28;20193;-80
2022/01/08 03:02:17;;;;;;;0.40;0.35;;;1.40;99.90;;;;;;5100393;28;20509;-81
2022/01/08 03:04:45;;;;;;;8.23;2.05;;;1.30;99.90;;;;;;5100133;28;20231;-80
2022/01/08 03:07:11;;;;;;;0.40;0.40;;;1.30;99.90;;;;;;5099999;28;20601;-80
2022/01/08 03:09:41;;;;;;;0.75;0.75;;;1.30;99.90;;;;;;5100894;28;20213;-80
2022/01/08 03:12:11;;;;;;;0.50;0.50;;;1.30;99.90;;;;;;5101198;28;20287;-80
2022/01/08 03:14:38;;;;;;;0.40;0.38;;;1.30;99.90;;;;;;5100358;28;20221;-80
2022/01/08 03:17:05;;;;;;;1.77;1.67;;;1.30;99.90;;;;;;5100825;28;20192;-80
2022/01/08 03:19:34;;;;;;;1.70;1.60;;;1.30;99.90;;;;;;5099717;28;20678;-80
2022/01/08 03:22:03;;;;;;;5.72;2.75;;;1.40;99.90;;;;;;5099995;28;20203;-79
2022/01/08 03:24:30;;;;;;;3.22;1.65;;;1.40;99.90;;;;;;5100657;28;20275;-77
2022/01/08 03:26:57;;;;;;;3.55;3.00;;;1.40;99.90;;;;;;5100677;28;20194;-80
2022/01/08 03:29:25;;;;;;;0.98;0.98;;;1.40;99.90;;;;;;5100197;28;20259;-78
2022/01/08 03:31:52;;;;;;;3.92;1.20;;;1.30;99.90;;;;;;5099237;28;20201;-80
2022/01/08 03:34:19;;;;;;;0.95;0.95;;;1.30;99.90;;;;;;5096559;28;20209;-80
2022/01/08 03:36:46;;;;;;;1.80;1.70;;;1.30;99.90;;;;;;5097217;28;20207;-80
2022/01/08 03:39:12;;;;;;;1.55;0.90;;;1.30;99.90;;;;;;5097018;28;20204;-79
2022/01/08 03:41:39;;;;;;;5.15;1.45;;;1.30;99.90;;;;;;5097567;28;20204;-80
2022/01/08 03:44:06;;;;;;;2.47;2.25;;;1.30;99.90;;;;;;5095925;28;20220;-79
2022/01/08 03:46:35;;;;;;;3.63;2.67;;;1.30;99.90;;;;;;5097605;28;20196;-80
2022/01/08 03:51:46;;;;;;;0.60;0.60;;;1.30;99.90;;;;;;5096653;28;20183;-77
2022/01/08 03:54:13;;;;;;;1.92;1.67;;;1.20;99.90;;;;;;5096915;28;20216;-80
2022/01/08 03:56:40;;;;;;;13.00;1.63;;;1.20;99.90;;;;;;5096423;28;20257;-80
2022/01/08 03:59:06;;;;;;;3.58;3.30;;;1.20;99.90;;;;;;5096474;28;20200;-80
2022/01/08 04:01:34;;;;;;;1.25;1.23;;;1.20;99.90;;;;;;5097263;28;20196;-79
2022/01/08 04:04:01;;;;;;;2.40;1.77;;;1.20;99.90;;;;;;5096253;28;20248;-81
2022/01/08 04:06:28;;;;;;;1.27;0.95;;;1.10;99.90;;;;;;5096371;28;20283;-80
2022/01/08 04:08:57;;;;;;;0.65;0.65;;;1.10;99.90;;;;;;5096212;28;20197;-80
2022/01/08 04:11:24;;;;;;;0.45;0.40;;;1.10;99.90;;;;;;5098001;28;20266;-80
2022/01/08 04:13:52;;;;;;;1.10;1.10;;;1.10;99.90;;;;;;5097821;28;20228;-81
2022/01/08 04:16:24;;;;;;;0.75;0.75;;;1.00;99.90;;;;;;5098771;28;20228;-80
2022/01/08 04:18:52;;;;;;;0.40;0.30;;;1.00;99.90;;;;;;5097328;28;20559;-80
2022/01/08 04:24:17;;;;;;;0.40;0.40;;;1.00;99.90;;;;;;5033556;28;20214;-81
2022/01/08 04:26:44;;;;;;;2.60;1.77;;;1.00;99.90;;;;;;5033616;28;20205;-80
2022/01/08 04:29:11;;;;;;;2.08;1.98;;;1.00;99.90;;;;;;5032985;28;20194;-80
2022/01/08 04:31:38;;;;;;;2.95;2.75;;;1.00;99.90;;;;;;5033483;28;20219;-80
2022/01/08 04:34:06;;;;;;;1.15;1.15;;;1.00;99.90;;;;;;5033860;28;20229;-79
2022/01/08 04:36:33;;;;;;;0.75;0.75;;;1.00;99.90;;;;;;5033342;28;20615;-80
2022/01/08 04:38:59;;;;;;;2.90;2.70;;;1.10;99.90;;;;;;5033300;28;20202;-79
2022/01/08 04:41:26;;;;;;;0.40;0.40;;;1.10;99.90;;;;;;5032949;28;20835;-80
2022/01/08 04:43:53;;;;;;;0.80;0.80;;;1.00;99.90;;;;;;5032177;28;20218;-80
2022/01/08 04:46:20;;;;;;;2.15;2.03;;;1.00;99.90;;;;;;5032665;28;20205;-77
2022/01/08 04:48:46;;;;;;;2.05;1.95;;;1.00;99.90;;;;;;5033021;28;20214;-79
2022/01/08 04:51:14;;;;;;;2.50;2.40;;;1.00;99.90;;;;;;5032920;28;20215;-80
2022/01/08 04:53:41;;;;;;;1.17;1.17;;;1.00;99.90;;;;;;5032827;28;20732;-80
2022/01/08 04:56:08;;;;;;;1.63;1.15;;;1.00;99.90;;;;;;5086976;28;20203;-80
2022/01/08 04:58:35;;;;;;;0.95;0.73;;;0.90;99.90;;;;;;5095613;28;20200;-79
2022/01/08 05:01:01;;;;;;;3.22;2.22;;;0.90;99.90;;;;;;5095126;28;20195;-80
2022/01/08 05:03:28;;;;;;;4.32;4.07;;;0.90;99.90;;;;;;5095907;28;20213;-79
2022/01/08 05:05:55;;;;;;;2.35;2.15;;;0.90;99.90;;;;;;5095577;28;20567;-79
2022/01/08 05:08:23;;;;;;;1.20;1.20;;;0.90;99.90;;;;;;5095894;28;20207;-79
2022/01/08 05:10:50;;;;;;;1.00;1.00;;;0.90;99.90;;;;;;5094540;28;20217;-80
2022/01/08 05:13:16;;;;;;;5.22;3.08;;;0.90;99.90;;;;;;5095632;28;20201;-80
2022/01/08 05:15:43;;;;;;;5.63;4.72;;;0.90;99.90;;;;;;5096547;28;20779;-80
2022/01/08 05:18:11;;;;;;;3.60;3.30;;;0.90;99.90;;;;;;5095169;28;20566;-80
2022/01/08 05:20:40;;;;;;;8.77;1.95;;;0.90;99.90;;;;;;5094458;28;20190;-80
2022/01/08 05:23:07;;;;;;;1.52;1.42;;;0.90;99.90;;;;;;5094763;28;20220;-80
2022/01/08 05:25:36;;;;;;;3.63;2.47;;;0.90;99.90;;;;;;5095450;28;20200;-80
2022/01/08 05:28:03;;;;;;;5.10;2.78;;;0.80;99.90;;;;;;5094695;28;20202;-81
2022/01/08 05:30:30;;;;;;;4.53;4.07;;;0.80;99.90;;;;;;5095112;28;20214;-80
2022/01/08 05:32:58;;;;;;;6.85;6.32;;;0.80;99.90;;;;;;5094814;28;20594;-79
2022/01/08 05:35:26;;;;;;;5.93;3.03;;;0.90;99.90;;;;;;5094337;28;20213;-79
2022/01/08 05:37:54;;;;;;;3.92;3.38;;;0.90;99.90;;;;;;5094432;28;20201;-80
2022/01/08 05:40:22;;;;;;;1.75;1.65;;;0.90;99.90;;;;;;5094739;28;20248;-78
2022/01/08 05:42:50;;;;;;;2.90;2.60;;;0.90;99.90;;;;;;5095500;28;20209;-80
2022/01/08 05:45:17;;;;;;;3.15;2.95;;;0.90;99.90;;;;;;5096045;28;20219;-80
2022/01/08 05:47:44;;;;;;;2.83;2.72;;;0.90;99.90;;;;;;5095625;28;20189;-80
2022/01/08 05:50:11;;;;;;;16.75;7.13;;;0.90;99.90;;;;;;5095759;28;20736;-80
2022/01/08 05:52:38;;;;;;;0.93;0.93;;;0.90;99.90;;;;;;5095697;28;20197;-80
2022/01/08 05:55:06;;;;;;;0.80;0.80;;;0.90;99.90;;;;;;5095531;28;20223;-81
2022/01/08 05:57:33;;;;;;;1.77;1.20;;;0.90;99.90;;;;;;5094973;28;20195;-79
2022/01/08 06:00:01;;;;;;;4.18;3.85;;;0.90;99.90;;;;;;5094330;28;20196;-80
2022/01/08 06:02:28;;;;;;;0.95;0.40;;;0.90;99.90;;;;;;5094171;28;20203;-80
2022/01/08 06:04:55;;;;;;;9.85;4.45;;;0.80;99.90;;;;;;5094398;28;20219;-80
2022/01/08 06:07:22;;;;;;;2.88;2.72;;;0.80;99.90;;;;;;5093985;28;20694;-80
2022/01/08 06:09:48;;;;;;;2.10;2.00;;;0.80;99.90;;;;;;5094604;28;20201;-80
2022/01/08 06:12:15;;;;;;;5.57;5.07;;;0.80;99.90;;;;;;5094397;28;20200;-80
2022/01/08 06:14:42;;;;;;;2.40;2.05;;;0.80;99.90;;;;;;5094018;28;20303;-80
2022/01/08 06:17:11;;;;;;;2.97;2.78;;;0.70;99.90;;;;;;5094019;28;20196;-80
2022/01/08 06:19:37;;;;;;;1.58;1.48;;;0.80;99.90;;;;;;5094485;28;20570;-80
2022/01/08 06:22:05;;;;;;;4.15;3.25;;;0.70;99.90;;;;;;5095143;28;20188;-80
2022/01/08 06:24:31;;;;;;;2.22;2.03;;;0.70;99.90;;;;;;5094791;28;20212;-79
2022/01/08 06:26:58;;;;;;;1.65;1.55;;;0.70;99.90;;;;;;5094377;28;20215;-79
2022/01/08 06:29:25;;;;;;;7.93;3.30;;;0.60;99.90;;;;;;5094248;28;20197;-77
2022/01/08 06:31:53;;;;;;;5.57;4.00;;;0.60;99.90;;;;;;5094824;28;20227;-79
2022/01/08 06:34:21;;;;;;;5.00;4.00;;;0.60;99.90;;;;;;5094293;28;20266;-80
2022/01/08 06:36:48;;;;;;;3.08;2.47;;;0.60;99.90;;;;;;5094645;28;20226;-80
2022/01/08 06:39:15;;;;;;;5.45;2.92;;;0.60;99.90;;;;;;5093199;28;20208;-80
2022/01/08 06:41:42;;;;;;;5.25;4.95;;;0.60;99.90;;;;;;5094056;28;20195;-80
2022/01/08 06:44:08;;;;;;;4.63;4.10;;;0.60;99.90;;;;;;5093557;28;20216;-77
2022/01/08 06:46:35;;;;;;;5.10;4.15;;;0.60;99.90;;;;;;5094136;28;20200;-81
2022/01/08 06:49:02;;;;;;;8.85;4.60;;;0.60;99.90;;;;;;5093405;28;20206;-80
2022/01/08 06:51:31;;;;;;;3.83;3.50;;;0.60;99.90;;;;;;5093996;28;20211;-76
2022/01/08 06:53:57;;;;;;;12.05;4.15;;;0.60;99.90;;;;;;5093692;28;20227;-79
2022/01/08 06:56:24;;;;;;;10.85;5.10;;;0.60;99.90;;;;;;5093147;28;20276;-79
2022/01/08 06:58:51;;;;;;;3.83;3.53;;;0.60;99.90;;;;;;5093305;28;20192;-80
2022/01/08 07:01:17;;;;;;;2.67;1.70;;;0.60;99.90;;;;;;5093900;28;20219;-80
2022/01/08 07:03:44;;;;;;;5.97;5.53;;;0.60;99.90;;;;;;5094228;28;20213;-80
2022/01/08 07:06:11;;;;;;;11.65;3.78;;;0.70;99.90;;;;;;5093491;28;20195;-80
2022/01/08 07:08:40;;;;;;;8.75;7.97;;;0.70;99.90;;;;;;5097184;28;20199;-79
2022/01/08 07:11:06;;;;;;;9.40;4.15;;;0.70;99.90;;;;;;5097241;28;20701;-79
2022/01/08 07:13:33;;;;;;;14.23;7.28;;;0.60;99.90;;;;;;5097646;28;20227;-78
2022/01/08 07:16:00;;;;;;;4.03;2.58;;;0.60;99.90;;;;;;5098417;28;20191;-79
2022/01/08 07:18:27;;;;;;;4.68;3.55;;;0.60;99.90;;;;;;5099798;28;20193;-81
2022/01/08 07:20:55;;;;;;;5.95;4.10;;;0.60;99.90;;;;;;5099122;28;20192;-80
2022/01/08 07:23:22;;;;;;;15.13;8.65;;;0.60;99.90;;;;;;5098341;28;20290;-79
2022/01/08 07:25:50;;;;;;;5.55;4.95;;;0.70;99.90;;;;;;5097672;28;20250;-81
2022/01/08 07:28:17;;;;;;;4.38;4.00;;;0.60;99.90;;;;;;5097697;28;20189;-80
2022/01/08 07:30:44;;;;;;;3.13;2.92;;;0.70;99.90;;;;;;5097481;28;20213;-81
2022/01/08 07:33:11;;;;;;;10.48;6.22;;;0.70;99.90;;;;;;5097372;28;20232;-80
2022/01/08 07:35:38;;;;;;;1.35;1.35;;;0.70;99.90;;;;;;5098538;28;20208;-82
2022/01/08 07:38:05;;;;;;;2.35;2.15;;;0.70;99.90;;;;;;5098103;28;20594;-82
2022/01/08 07:40:32;;;;;;;3.72;3.63;;;0.70;99.90;;;;;;5097095;28;20200;-80
2022/01/08 07:43:00;;;;;;;0.88;0.88;;;0.80;99.90;;;;;;5097337;28;20204;-81
2022/01/08 07:45:27;;;;;;;6.35;5.75;;;0.80;99.90;;;;;;5096169;28;20212;-82
2022/01/08 07:47:53;;;;;;;8.13;3.33;;;0.70;99.90;;;;;;5096522;28;20195;-82
2022/01/08 07:50:20;;;;;;;3.00;1.80;;;0.70;99.90;;;;;;5096625;28;20207;-80
2022/01/08 07:52:47;;;;;;;8.10;3.83;;;0.70;99.90;;;;;;5097060;28;20200;-82
2022/01/08 07:55:14;;;;;;;19.35;4.68;;;0.80;99.90;;;;;;5097262;28;20216;-80
2022/01/08 07:57:41;;;;;;;4.90;2.78;;;0.80;99.90;;;;;;5097121;28;20245;-79
2022/01/08 08:00:10;;;;;;;2.20;2.03;;;0.80;99.90;;;;;;5096551;28;20233;-80
2022/01/08 08:02:37;;;;;;;2.95;1.88;;;0.90;99.90;;;;;;5102074;28;20189;-82
2022/01/08 08:05:04;;;;;;;1.30;1.30;;;0.90;99.90;;;;;;5110923;28;20279;-81
2022/01/08 08:07:36;;;;;;;0.88;0.80;;;0.90;99.90;;;;;;5109620;28;20535;-80
2022/01/08 08:10:05;;;;;;;0.40;0.40;;;1.00;99.90;;;;;;5109237;28;20191;-81
2022/01/08 08:12:31;;;;;;;1.90;1.80;;;1.00;99.90;;;;;;5110525;28;20220;-80
2022/01/08 08:14:58;;;;;;;12.60;5.22;;;1.10;99.90;;;;;;5110924;28;20224;-81
2022/01/08 08:17:26;;;;;;;10.50;5.78;;;1.10;99.90;;;;;;5110635;28;20200;-81
2022/01/08 08:19:53;;;;;;;4.00;2.55;;;1.10;99.90;;;;;;5111288;28;20206;-81
2022/01/08 08:22:20;;;;;;;9.63;7.95;;;1.20;99.90;;;;;;5107352;28;20208;-81
2022/01/08 08:24:46;;;;;;;7.47;2.28;;;1.20;99.90;;;;;;5096612;28;20226;-81
2022/01/08 08:27:13;;;;;;;1.40;1.30;;;1.20;99.90;;;;;;5095580;28;20692;-81
2022/01/08 08:29:40;;;;;;;7.30;5.35;;;1.30;99.90;;;;;;5095867;28;20566;-81
2022/01/08 08:32:08;;;;;;;6.13;5.40;;;1.30;99.90;;;;;;5096357;28;20245;-81
2022/01/08 08:34:36;;;;;;;7.15;6.40;;;1.40;99.90;;;;;;5096027;28;20273;-80
2022/01/08 08:37:04;;;;;;;3.25;2.03;;;1.40;99.90;;;;;;5096372;28;20206;-80
2022/01/08 08:39:31;;;;;;;6.90;5.68;;;1.40;99.90;;;;;;5102718;28;20200;-81
2022/01/08 08:41:57;;;;;;;20.70;12.80;;;1.40;99.90;;;;;;5105913;28;20661;-81
2022/01/08 08:44:24;;;;;;;17.85;8.07;;;1.40;99.90;;;;;;5105131;28;20595;-81
2022/01/08 08:46:51;;;;;;;7.55;5.05;;;1.40;99.90;;;;;;5107440;28;20200;-81
2022/01/08 08:49:18;;;;;;;7.35;6.85;;;1.40;99.90;;;;;;5109501;28;20210;-81
2022/01/08 08:51:46;;;;;;;26.77;15.57;;;1.40;99.90;;;;;;5112088;28;20219;-81
2022/01/08 08:54:13;;;;;;;10.95;9.85;;;1.40;99.90;;;;;;5109784;28;20337;-81
2022/01/08 08:56:42;;;;;;;6.15;5.32;;;1.40;99.90;;;;;;5110309;28;20202;-81
2022/01/08 08:59:09;;;;;;;5.72;2.00;;;1.40;99.90;;;;;;5111103;28;20193;-81
2022/01/08 09:01:36;;;;;;;10.20;7.80;;;1.40;99.90;;;;;;5108383;28;20200;-81
2022/01/08 09:04:02;;;;;;;7.55;3.97;;;1.50;99.90;;;;;;5098798;28;20216;-81
2022/01/08 09:06:30;;;;;;;0.50;0.50;;;1.50;99.90;;;;;;5095556;28;20192;-81
2022/01/08 09:08:58;;;;;;;1.50;1.40;;;1.50;99.90;;;;;;5094811;28;20296;-80
2022/01/08 09:11:25;;;;;;;7.63;6.43;;;1.70;99.90;;;;;;5095517;28;20208;-81
2022/01/08 09:13:52;;;;;;;3.70;2.78;;;1.70;99.90;;;;;;5095125;28;20302;-80
2022/01/08 09:16:18;;;;;;;5.85;5.00;;;1.80;99.90;;;;;;5096618;28;20760;-80
2022/01/08 09:18:45;;;;;;;3.78;3.28;;;1.80;99.90;;;;;;5095675;28;20200;-80
2022/01/08 09:21:13;;;;;;;3.95;2.80;;;1.90;99.90;;;;;;5094851;28;20193;-82
2022/01/08 09:23:40;;;;;;;5.75;5.22;;;1.90;99.90;;;;;;5095471;28;20216;-82
2022/01/08 09:26:09;;;;;;;1.52;1.42;;;1.90;99.90;;;;;;5094941;28;20674;-81
2022/01/08 09:28:36;;;;;;;8.23;5.10;;;2.00;99.90;;;;;;5096325;28;20200;-81
2022/01/08 09:31:03;;;;;;;4.20;2.83;;;2.00;99.90;;;;;;5094672;28;20197;-81
2022/01/08 09:33:30;;;;;;;13.38;9.85;;;2.10;99.90;;;;;;5095880;28;20587;-81
2022/01/08 09:35:57;;;;;;;8.85;5.72;;;2.00;99.90;;;;;;5094662;28;20197;-81
2022/01/08 09:38:24;;;;;;;9.18;3.20;;;2.10;99.90;;;;;;5095563;28;20201;-81
2022/01/08 09:40:51;;;;;;;10.40;7.25;;;2.10;99.90;;;;;;5094451;28;20203;-81
2022/01/08 09:43:20;;;;;;;1.83;1.67;;;2.20;99.90;;;;;;5095442;28;20201;-80
2022/01/08 09:45:47;;;;;;;4.20;3.15;;;2.30;99.90;;;;;;5094772;28;20208;-80
2022/01/08 09:48:14;;;;;;;3.33;2.70;;;2.30;99.90;;;;;;5094874;28;20193;-81
2022/01/08 09:50:41;;;;;;;3.22;2.58;;;2.40;99.90;;;;;;5094491;28;20286;-82
2022/01/08 09:53:08;;;;;;;3.97;3.28;;;2.50;99.90;;;;;;5094813;28;20539;-78
2022/01/08 09:55:35;;;;;;;2.47;2.28;;;2.50;99.90;;;;;;5096116;28;20197;-80
2022/01/08 09:58:02;;;;;;;14.40;5.47;;;2.60;99.90;;;;;;5094514;28;20197;-81
2022/01/08 10:00:32;;;;;;;8.02;5.25;;;2.50;99.90;;;;;;5094039;28;20197;-81
2022/01/08 10:03:17;;;;;;;4.63;3.20;;;2.50;99.90;;;;;;5095665;28;20189;-81
2022/01/08 10:05:45;;;;;;;7.50;5.45;;;2.50;99.90;;;;;;5094667;28;20243;-81
2022/01/08 10:08:14;;;;;;;23.88;7.95;;;2.50;99.90;;;;;;5094048;28;20205;-82
2022/01/08 10:10:42;;;;;;;20.35;9.07;;;2.60;99.90;;;;;;5095011;28;20242;-82
2022/01/08 10:13:23;;;;;;;2.25;2.15;;;2.70;99.90;;;;;;5096248;28;20717;-78
2022/01/08 10:18:38;;;;;;;9.38;4.80;;;3.00;99.90;;;;;;5094976;28;20176;-81
2022/01/08 10:21:17;;;;;;;4.63;3.85;;;3.00;99.90;;;;;;5094257;28;20227;-82
2022/01/08 10:23:46;;;;;;;10.55;4.57;;;3.00;99.90;;;;;;5094937;28;20219;-81
2022/01/08 10:26:16;;;;;;;8.05;4.97;;;2.90;99.90;;;;;;5094332;28;20224;-77
2022/01/08 10:28:44;;;;;;;3.42;3.17;;;2.90;99.90;;;;;;5093410;28;20211;-80
2022/01/08 10:31:18;;;;;;;11.73;5.30;;;3.00;99.90;;;;;;5094483;28;20209;-79
2022/01/08 10:33:48;;;;;;;8.90;5.43;;;3.10;99.90;;;;;;5094106;28;20221;-81
2022/01/08 10:36:20;;;;;;;6.82;5.75;;;3.20;99.90;;;;;;5094255;28;20254;-76
2022/01/08 10:38:51;;;;;;;12.48;3.50;;;3.40;99.90;;;;;;5094253;28;20204;-79
2022/01/08 10:41:17;;;;;;;17.63;8.98;;;3.50;99.90;;;;;;5095421;28;20246;-79
2022/01/08 10:43:45;;;;;;;5.07;3.60;;;3.60;99.90;;;;;;5098431;28;20221;-80
2022/01/08 10:46:16;;;;;;;33.50;6.60;;;3.70;99.90;;;;;;5098279;28;20201;-79
2022/01/08 10:48:48;;;;;;;7.80;4.32;;;3.90;99.90;;;;;;5098610;28;20654;-80
2022/01/08 10:51:19;;;;;;;0.60;0.50;;;4.00;99.90;;;;;;5098458;28;20207;-80
2022/01/08 10:54:05;;;;;;;3.20;3.00;;;4.10;99.90;;;;;;5098026;28;20220;-82
2022/01/08 10:56:34;;;;;;;4.97;4.47;;;4.00;99.90;;;;;;5099611;28;20516;-81
2022/01/08 10:59:04;;;;;;;7.60;5.00;;;4.00;99.90;;;;;;5098014;28;20200;-80
2022/01/08 11:01:51;;;;;;;4.80;4.47;;;4.00;99.90;;;;;;5099262;28;20181;-81
2022/01/08 11:04:20;;;;;;;1.50;1.40;;;3.90;99.90;;;;;;5103373;28;20632;-81
2022/01/08 11:06:53;;;;;;;2.03;1.88;;;4.00;99.90;;;;;;5098071;28;20197;-81
2022/01/08 11:09:19;;;;;;;6.57;2.15;;;4.10;99.90;;;;;;5097853;28;20201;-78
2022/01/08 11:11:47;;;;;;;0.50;0.50;;;4.20;99.90;;;;;;5098601;28;20216;-81
2022/01/08 11:14:23;;;;;;;18.13;10.50;;;4.20;99.90;;;;;;5097820;28;20228;-80
2022/01/08 11:16:52;;;;;;;0.50;0.50;;;4.10;99.90;;;;;;5098260;28;20177;-81
2022/01/08 11:19:20;;;;;;;4.70;2.97;;;4.00;99.90;;;;;;5096867;28;20205;-78
2022/01/08 11:21:49;;;;;;;2.67;2.17;;;4.00;99.90;;;;;;5097977;28;20190;-81
2022/01/08 11:24:18;;;;;;;3.45;2.20;;;4.10;99.90;;;;;;5097215;28;20235;-81
2022/01/08 11:26:51;;;;;;;2.38;1.95;;;4.10;99.90;;;;;;5097423;28;20201;-81
2022/01/08 11:29:22;;;;;;;12.98;2.38;;;4.10;99.90;;;;;;5096695;28;20181;-81
2022/01/08 11:31:55;;;;;;;7.82;2.35;;;4.10;99.90;;;;;;5098157;28;20209;-80
2022/01/08 11:34:23;;;;;;;2.85;2.53;;;4.10;99.90;;;;;;5096791;28;20232;-81
2022/01/08 11:36:51;;;;;;;1.50;1.40;;;4.30;99.90;;;;;;5097018;28;20197;-80
2022/01/08 11:39:18;;;;;;;1.98;1.85;;;4.20;99.90;;;;;;5096811;28;20201;-81
2022/01/08 11:41:47;;;;;;;1.30;1.20;;;4.60;99.90;;;;;;5096739;28;20570;-81
2022/01/08 11:44:14;;;;;;;3.55;3.25;;;4.80;99.90;;;;;;5097355;28;20213;-80
2022/01/08 11:46:41;;;;;;;0.50;0.40;;;4.90;99.90;;;;;;5097499;28;20197;-82
2022/01/08 11:49:10;;;;;;;0.50;0.40;;;5.00;99.90;;;;;;5097347;28;20256;-81
2022/01/08 11:51:36;;;;;;;0.50;0.40;;;5.10;99.90;;;;;;5096654;28;20204;-82
2022/01/08 11:54:04;;;;;;;3.28;2.15;;;5.10;99.90;;;;;;5095893;28;20240;-82
2022/01/08 11:56:34;;;;;;;0.50;0.40;;;5.00;99.90;;;;;;5097854;28;20234;-81
2022/01/08 11:59:06;;;;;;;1.38;1.27;;;4.90;99.90;;;;;;5096891;28;20622;-80
2022/01/08 12:01:33;;;;;;;1.50;1.25;;;5.00;99.90;;;;;;5096933;28;20189;-81
2022/01/08 12:04:00;;;;;;;3.25;2.50;;;4.90;99.90;;;;;;5097224;28;20215;-81
2022/01/08 12:06:37;;;;;;;7.43;1.95;;;4.70;99.90;;;;;;5096965;28;20197;-81
2022/01/08 12:09:21;;;;;;;1.35;1.35;;;4.70;99.90;;;;;;5097042;28;20267;-81
2022/01/08 12:11:55;;;;;;;3.22;2.78;;;4.80;99.90;;;;;;5097044;28;20240;-81
2022/01/08 12:14:23;;;;;;;2.35;1.70;;;4.80;99.90;;;;;;5096708;28;20221;-80
2022/01/08 12:16:51;;;;;;;1.95;1.55;;;4.70;99.90;;;;;;5096493;28;20197;-82
2022/01/08 12:19:29;;;;;;;2.70;1.15;;;4.60;99.90;;;;;;5095415;28;20207;-82
2022/01/08 12:21:58;;;;;;;1.25;1.15;;;4.50;99.90;;;;;;5097705;28;20667;-82
2022/01/08 12:24:35;;;;;;;0.75;0.52;;;4.50;99.90;;;;;;5096720;28;20213;-82
2022/01/08 12:27:19;;;;;;;4.82;1.92;;;4.60;99.90;;;;;;5097436;28;20188;-80
2022/01/08 12:29:45;;;;;;;0.80;0.77;;;4.70;99.90;;;;;;5096846;28;20193;-81
2022/01/08 12:32:29;;;;;;;0.68;0.65;;;4.80;99.90;;;;;;5098373;28;20209;-81
2022/01/08 12:35:21;;;;;;;0.52;0.52;;;4.80;99.90;;;;;;5096550;28;20279;-81
2022/01/08 12:37:51;;;;;;;2.53;1.70;;;4.80;99.90;;;;;;5096736;28;20212;-81
2022/01/08 12:40:34;;;;;;;2.03;1.90;;;4.90;99.90;;;;;;5095897;28;20198;-81
2022/01/08 12:43:17;;;;;;;1.00;0.90;;;5.10;99.90;;;;;;5100935;28;20193;-79
2022/01/08 12:45:46;;;;;;;1.00;1.00;;;5.20;99.90;;;;;;5095927;28;20201;-80
2022/01/08 12:48:13;;;;;;;1.15;0.80;;;5.10;99.90;;;;;;5096283;28;20232;-81
2022/01/08 12:50:52;;;;;;;4.18;2.97;;;5.20;99.90;;;;;;5095632;28;20189;-81
2022/01/08 12:53:23;;;;;;;1.17;1.10;;;5.20;99.90;;;;;;5095785;28;20208;-80
2022/01/08 12:56:13;;;;;;;1.35;1.25;;;5.30;99.90;;;;;;5095531;28;20666;-80
2022/01/08 12:58:49;;;;;;;0.60;0.60;;;5.30;99.90;;;;;;5095856;28;20189;-81
2022/01/08 13:01:18;;;;;;;1.63;0.93;;;5.30;99.90;;;;;;5096009;28;20204;-80
2022/01/08 13:03:46;;;;;;;1.20;0.70;;;5.30;99.90;;;;;;5095563;28;20209;-81
2022/01/08 13:06:37;;;;;;;2.00;1.90;;;5.20;99.90;;;;;;5094491;28;20197;-82
2022/01/08 13:09:07;;;;;;;3.85;0.95;;;5.10;99.90;;;;;;5070634;28;20208;-81
2022/01/08 13:11:36;;;;;;;2.67;0.63;;;4.90;99.90;;;;;;5095887;28;20216;-81
2022/01/08 13:14:05;;;;;;;0.82;0.82;;;4.70;99.90;;;;;;5095407;28;20217;-79
2022/01/08 13:16:36;;;;;;;3.42;1.65;;;4.70;99.90;;;;;;5095859;28;20207;-80
2022/01/08 13:19:05;;;;;;;8.45;2.80;;;4.50;99.90;;;;;;5094959;28;20280;-81
2022/01/08 13:21:34;;;;;;;0.55;0.52;;;4.40;99.90;;;;;;5095476;28;20193;-81
2022/01/08 13:24:04;;;;;;;0.80;0.70;;;4.40;99.90;;;;;;5095337;28;20209;-80
2022/01/08 13:26:36;;;;;;;2.33;1.00;;;4.30;99.90;;;;;;5095396;28;20572;-81
2022/01/08 13:29:18;;;;;;;1.55;0.70;;;4.20;99.90;;;;;;5095435;28;20189;-80